Time;durP1;ratioP1;P1;durP2;ratioP2;P2;SDS_P1;SDS_P2;PMS_P1;PMS_P2;Temp;Humidity;BMP_temperature;BMP_pressure;BME280_temperature;BME280_humidity;BME280_pressure;Samples;Min_cycle;Max_cycle;Signal;HPM_P1;HPM_P2
2023/02/28 00:00:39;;;;;;;42.05;38.03;;;;;;;4.39;100.00;102046.84;5052357;28;20099;-78
2023/02/28 00:03:06;;;;;;;39.17;35.08;;;;;;;4.72;100.00;102048.34;5052705;28;20155;-78
2023/02/28 00:05:32;;;;;;;40.72;36.58;;;;;;;4.31;100.00;102054.56;5052454;28;20045;-78
2023/02/28 00:07:59;;;;;;;44.35;39.85;;;;;;;4.27;100.00;102061.91;5052765;28;20060;-77
2023/02/28 00:10:28;;;;;;;47.13;42.53;;;;;;;4.27;100.00;102087.38;5052404;28;20114;-77
2023/02/28 00:12:57;;;;;;;39.70;35.45;;;;;;;4.30;100.00;102080.03;5052678;28;20056;-78
2023/02/28 00:15:24;;;;;;;41.80;37.55;;;;;;;4.26;100.00;102081.25;5052639;28;20135;-78
2023/02/28 00:17:53;;;;;;;37.60;33.60;;;;;;;4.24;100.00;102077.13;5052374;28;20469;-78
2023/02/28 00:20:20;;;;;;;38.00;34.00;;;;;;;4.36;100.00;102082.16;5052343;28;20114;-77
2023/02/28 00:22:49;;;;;;;43.17;38.78;;;;;;;4.31;100.00;102086.97;5052093;28;20068;-77
2023/02/28 00:25:18;;;;;;;43.67;39.15;;;;;;;4.36;100.00;102078.69;5051579;28;20049;-77
2023/02/28 00:27:46;;;;;;;46.35;41.95;;;;;;;4.37;100.00;102069.81;5052536;28;20114;-78
2023/02/28 00:30:15;;;;;;;41.13;36.92;;;;;;;4.11;100.00;102072.03;5052200;28;20502;-78
2023/02/28 00:32:41;;;;;;;40.58;36.28;;;;;;;3.99;100.00;102073.09;5052828;28;20485;-78
2023/02/28 00:35:11;;;;;;;39.65;35.40;;;;;;;3.87;100.00;102078.44;5052328;28;20052;-77
2023/02/28 00:37:38;;;;;;;48.20;43.35;;;;;;;3.99;100.00;102083.59;5051952;28;20060;-77
2023/02/28 00:40:06;;;;;;;44.35;39.97;;;;;;;3.93;100.00;102082.31;5052083;28;20052;-77
2023/02/28 00:42:33;;;;;;;39.65;35.63;;;;;;;4.07;100.00;102094.31;5052245;28;20044;-77
2023/02/28 00:45:00;;;;;;;39.72;35.42;;;;;;;3.88;100.00;102097.66;5052293;28;20132;-77
2023/02/28 00:47:27;;;;;;;46.50;41.80;;;;;;;3.97;100.00;102096.06;5052346;28;20449;-78
2023/02/28 00:49:54;;;;;;;51.03;46.15;;;;;;;4.00;100.00;102098.44;5052133;28;20045;-77
2023/02/28 00:52:22;;;;;;;49.13;44.33;;;;;;;3.93;100.00;102108.59;5052236;28;20080;-77
2023/02/28 00:54:49;;;;;;;40.38;36.08;;;;;;;3.88;100.00;102098.50;5051713;28;20045;-77
2023/02/28 00:57:15;;;;;;;42.05;35.40;;;;;;;4.11;100.00;102099.19;5052181;28;20114;-77
2023/02/28 00:59:42;;;;;;;46.20;41.60;;;;;;;3.96;100.00;102110.97;5052106;28;20049;-77
2023/02/28 01:02:09;;;;;;;45.65;41.05;;;;;;;3.93;100.00;102110.41;5051471;28;20061;-77
2023/02/28 01:04:36;;;;;;;41.50;37.00;;;;;;;3.88;100.00;102102.91;5051725;28;20068;-77
2023/02/28 01:07:02;;;;;;;43.58;39.03;;;;;;;4.11;100.00;102111.50;5052149;28;20057;-77
2023/02/28 01:09:31;;;;;;;45.47;40.78;;;;;;;3.81;100.00;102115.75;5051860;28;20399;-77
2023/02/28 01:11:57;;;;;;;41.75;37.45;;;;;;;3.78;100.00;102110.75;5051673;28;20114;-77
2023/02/28 01:14:24;;;;;;;45.70;41.13;;;;;;;3.81;100.00;102101.75;5051590;28;20559;-77
2023/02/28 01:16:51;;;;;;;44.00;38.38;;;;;;;3.62;100.00;102095.38;5052160;28;20045;-77
2023/02/28 01:19:18;;;;;;;42.58;38.15;;;;;;;3.87;100.00;102111.75;5052059;28;20057;-77
2023/02/28 01:21:44;;;;;;;46.28;41.60;;;;;;;3.86;100.00;102112.72;5051594;28;20083;-78
2023/02/28 01:24:11;;;;;;;47.50;42.60;;;;;;;3.62;100.00;102129.53;5052016;28;20056;-78
2023/02/28 01:26:39;;;;;;;46.00;41.10;;;;;;;3.83;100.00;102123.50;5051603;28;20053;-77
2023/02/28 01:29:06;;;;;;;48.80;43.60;;;;;;;3.85;100.00;102118.94;5052061;28;20064;-77
2023/02/28 01:31:33;;;;;;;50.80;46.00;;;;;;;3.88;100.00;102113.44;5051854;28;20525;-78
2023/02/28 01:34:00;;;;;;;48.58;43.80;;;;;;;3.86;100.00;102124.06;5051538;28;20053;-77
2023/02/28 01:36:27;;;;;;;41.70;37.22;;;;;;;4.09;100.00;102121.31;5052983;28;20053;-77
2023/02/28 01:38:54;;;;;;;43.85;39.35;;;;;;;3.92;100.00;102129.78;5055115;28;20064;-77
2023/02/28 01:41:23;;;;;;;43.55;38.40;;;;;;;4.07;100.00;102141.66;5055480;28;20049;-77
2023/02/28 01:44:04;;;;;;;45.35;40.85;;;;;;;4.11;100.00;102146.53;5055604;28;20102;-77
2023/02/28 01:46:31;;;;;;;42.72;38.22;;;;;;;4.05;100.00;102144.38;5055234;28;20140;-78
2023/02/28 01:49:05;;;;;;;41.55;37.05;;;;;;;4.07;100.00;102154.78;5055334;28;20484;-78
2023/02/28 01:51:37;;;;;;;42.38;37.90;;;;;;;4.06;100.00;102169.75;5055273;28;20049;-78
2023/02/28 01:54:13;;;;;;;43.65;39.35;;;;;;;4.18;100.00;102177.56;5054935;28;20095;-77
2023/02/28 01:56:45;;;;;;;47.67;42.92;;;;;;;4.13;100.00;102181.41;5055399;28;20044;-77
2023/02/28 01:59:20;;;;;;;47.72;42.80;;;;;;;3.93;100.00;102162.97;5055150;28;20053;-77
2023/02/28 02:01:46;;;;;;;44.75;40.25;;;;;;;4.19;100.00;102164.28;5054720;28;20099;-77
2023/02/28 02:04:13;;;;;;;46.40;41.83;;;;;;;4.09;100.00;102148.44;5055119;28;20049;-78
2023/02/28 02:06:44;;;;;;;43.75;39.45;;;;;;;4.05;100.00;102157.53;5054780;28;20056;-78
2023/02/28 02:09:10;;;;;;;45.80;41.10;;;;;;;4.12;100.00;102140.31;5055091;28;20126;-78
2023/02/28 02:11:40;;;;;;;40.85;36.65;;;;;;;3.95;100.00;102130.34;5054640;28;20110;-78
2023/02/28 02:14:32;;;;;;;47.53;42.90;;;;;;;4.06;100.00;102132.09;5054774;28;20052;-78
2023/02/28 02:17:27;;;;;;;52.85;48.00;;;;;;;3.98;100.00;102124.84;5055014;28;20045;-78
2023/02/28 02:20:28;;;;;;;47.85;43.25;;;;;;;3.88;100.00;102132.66;5053733;28;20045;-77
2023/02/28 02:23:28;;;;;;;40.58;36.28;;;;;;;3.92;100.00;102124.53;5054625;28;20110;-77
2023/02/28 02:25:57;;;;;;;45.30;40.65;;;;;;;3.69;100.00;102127.25;5054663;28;20045;-77
2023/02/28 02:28:57;;;;;;;44.25;39.67;;;;;;;3.66;100.00;102120.47;5054563;28;20052;-77
2023/02/28 02:31:47;;;;;;;46.33;41.30;;;;;;;4.00;100.00;102122.94;5054485;28;20110;-77
2023/02/28 02:34:36;;;;;;;43.20;38.70;;;;;;;3.77;100.00;102131.88;5054256;28;20099;-77
2023/02/28 02:37:15;;;;;;;42.95;38.50;;;;;;;4.48;100.00;102135.53;5050337;28;20098;-78
2023/02/28 02:39:51;;;;;;;46.10;41.40;;;;;;;3.86;100.00;102152.97;5054349;28;20053;-77
2023/02/28 02:42:27;;;;;;;46.47;41.88;;;;;;;3.86;100.00;102154.78;5054062;28;20053;-77
2023/02/28 02:45:00;;;;;;;49.20;44.05;;;;;;;4.21;100.00;102146.59;5054390;28;20052;-77
2023/02/28 02:47:30;;;;;;;54.38;49.38;;;;;;;3.74;100.00;102154.00;5053837;28;20060;-77
2023/02/28 02:50:02;;;;;;;47.95;43.33;;;;;;;3.78;100.00;102158.06;5054046;28;20107;-77
2023/02/28 02:52:35;;;;;;;48.42;43.63;;;;;;;3.73;100.00;102164.66;5053947;28;20056;-77
2023/02/28 02:55:04;;;;;;;43.72;39.10;;;;;;;3.65;100.00;102160.81;5053814;28;20106;-77
2023/02/28 02:57:35;;;;;;;43.47;39.03;;;;;;;4.30;100.00;102166.03;5053733;28;20102;-77
2023/02/28 03:00:05;;;;;;;57.25;51.67;;;;;;;3.80;100.00;102176.31;5054041;28;20130;-77
2023/02/28 03:02:34;;;;;;;45.50;40.70;;;;;;;3.73;100.00;102178.63;5053607;28;20174;-77
2023/02/28 03:05:05;;;;;;;46.25;41.35;;;;;;;4.00;100.00;102182.56;5053996;28;20071;-77
2023/02/28 03:07:32;;;;;;;45.88;41.20;;;;;;;5.24;100.00;102177.22;5053577;28;20044;-77
2023/02/28 03:09:59;;;;;;;43.50;39.10;;;;;;;3.67;100.00;102184.38;5053801;28;20056;-77
2023/02/28 03:12:41;;;;;;;53.83;48.63;;;;;;;3.83;100.00;102190.03;5053754;28;20049;-77
2023/02/28 03:15:18;;;;;;;51.38;46.33;;;;;;;3.54;100.00;102187.16;5053397;28;20098;-77
2023/02/28 03:18:05;;;;;;;43.65;37.95;;;;;;;3.62;100.00;102181.28;5053971;28;20479;-77
2023/02/28 03:20:42;;;;;;;43.58;38.92;;;;;;;4.21;100.00;102191.28;5053345;28;20049;-77
2023/02/28 03:23:17;;;;;;;47.83;43.05;;;;;;;3.47;100.00;102199.09;5053533;28;20504;-77
2023/02/28 03:25:55;;;;;;;45.70;41.05;;;;;;;3.50;100.00;102190.16;5053492;28;20049;-77
2023/02/28 03:28:31;;;;;;;43.10;38.53;;;;;;;3.58;100.00;102193.81;5053510;28;20057;-78
2023/02/28 03:31:01;;;;;;;44.28;39.85;;;;;;;4.09;100.00;102208.94;5053451;28;20136;-78
2023/02/28 03:33:33;;;;;;;46.10;41.35;;;;;;;3.67;100.00;102208.00;5053496;28;20045;-77
2023/02/28 03:36:06;;;;;;;43.67;39.03;;;;;;;3.72;100.00;102200.56;5052933;28;20045;-77
2023/02/28 03:38:36;;;;;;;36.40;32.10;;;;;;;4.45;100.00;102203.31;5053321;28;20083;-78
2023/02/28 03:41:10;;;;;;;40.95;36.47;;;;;;;4.75;100.00;102203.38;5053266;28;20059;-77
2023/02/28 03:43:42;;;;;;;41.80;37.50;;;;;;;3.59;100.00;102192.84;5053164;28;20079;-78
2023/02/28 03:46:14;;;;;;;39.40;35.00;;;;;;;3.75;100.00;102188.97;5052775;28;20049;-77
2023/02/28 03:48:45;;;;;;;41.83;36.03;;;;;;;3.64;100.00;102187.25;5052913;28;20045;-77
2023/02/28 03:51:18;;;;;;;43.10;38.03;;;;;;;3.48;100.00;102189.44;5052589;28;20548;-77
2023/02/28 03:53:51;;;;;;;45.38;40.67;;;;;;;3.66;100.00;102195.81;5052662;28;20048;-77
2023/02/28 03:56:19;;;;;;;;;;;;;;;3.52;100.00;102196.13;5053397;28;20049;-77
2023/02/28 03:58:52;;;;;;;42.13;37.65;;;;;;;3.63;100.00;102206.56;5038443;28;19921;-77
2023/02/28 04:01:24;;;;;;;43.00;37.38;;;;;;;3.54;100.00;102204.69;5032613;28;20053;-77
2023/02/28 04:03:51;;;;;;;47.42;42.53;;;;;;;3.77;100.00;102208.09;5033090;28;20049;-77
2023/02/28 04:06:21;;;;;;;45.78;38.53;;;;;;;3.68;100.00;102202.63;5032813;28;20057;-77
2023/02/28 04:08:48;;;;;;;45.50;39.75;;;;;;;3.47;100.00;102201.72;5033123;28;20111;-78
2023/02/28 04:11:22;;;;;;;44.97;37.38;;;;;;;3.60;100.00;102204.19;5032887;28;20107;-77
2023/02/28 04:13:49;;;;;;;41.85;36.42;;;;;;;3.30;100.00;102207.47;5032738;28;20049;-77
2023/02/28 04:16:15;;;;;;;48.05;38.10;;;;;;;4.54;100.00;102200.78;5032687;28;20123;-77
2023/02/28 04:18:43;;;;;;;46.83;39.40;;;;;;;3.29;100.00;102187.44;5032757;28;20095;-77
2023/02/28 04:21:11;;;;;;;50.70;39.88;;;;;;;3.33;100.00;102188.84;5032718;28;20053;-77
2023/02/28 04:23:39;;;;;;;53.38;42.85;;;;;;;3.65;100.00;102191.53;5032726;28;20061;-77
2023/02/28 04:26:06;;;;;;;49.97;41.42;;;;;;;3.48;100.00;102189.44;5032533;28;20100;-77
2023/02/28 04:28:33;;;;;;;43.60;34.72;;;;;;;4.85;100.00;102187.63;5032522;28;20140;-77
2023/02/28 04:31:02;;;;;;;43.60;36.08;;;;;;;3.96;100.00;102181.13;5032499;28;20053;-77
2023/02/28 04:33:29;;;;;;;47.67;40.70;;;;;;;3.62;100.00;102166.34;5032040;28;20053;-77
2023/02/28 04:36:00;;;;;;;49.20;40.13;;;;;;;3.84;100.00;102172.47;5032344;28;20118;-77
2023/02/28 04:38:27;;;;;;;51.17;39.58;;;;;;;3.55;100.00;102169.59;5032310;28;20049;-77
2023/02/28 04:40:58;;;;;;;54.70;43.78;;;;;;;3.57;100.00;102183.44;5032438;28;20505;-78
2023/02/28 04:43:24;;;;;;;52.25;41.58;;;;;;;3.42;100.00;102188.16;5032310;28;20045;-77
2023/02/28 04:45:51;;;;;;;53.15;40.65;;;;;;;3.56;100.00;102193.09;5032048;28;20503;-77
2023/02/28 04:48:18;;;;;;;52.88;39.53;;;;;;;3.88;100.00;102189.66;5032430;28;20123;-77
2023/02/28 04:50:45;;;;;;;54.92;42.50;;;;;;;4.73;100.00;102180.78;5032056;28;20156;-78
2023/02/28 04:53:11;;;;;;;52.70;40.83;;;;;;;4.00;100.00;102175.50;5032304;28;20123;-78
2023/02/28 04:55:39;;;;;;;48.47;39.58;;;;;;;3.72;100.00;102190.06;5032302;28;20131;-78
2023/02/28 04:58:07;;;;;;;55.67;41.83;;;;;;;3.31;100.00;102191.63;5032382;28;20057;-77
2023/02/28 05:00:34;;;;;;;48.97;37.00;;;;;;;3.80;100.00;102190.28;5031950;28;20053;-78
2023/02/28 05:03:01;;;;;;;55.60;39.40;;;;;;;3.23;100.00;102194.00;5032143;28;20050;-77
2023/02/28 05:05:28;;;;;;;53.45;38.10;;;;;;;3.88;100.00;102197.56;5032236;28;20115;-77
2023/02/28 05:07:55;;;;;;;50.60;37.85;;;;;;;4.50;100.00;102209.03;5037647;28;20095;-78
2023/02/28 05:10:22;;;;;;;51.13;38.33;;;;;;;3.31;100.00;102196.88;5052161;28;20140;-78
2023/02/28 05:12:49;;;;;;;51.58;36.83;;;;;;;3.73;100.00;102198.81;5055342;28;20049;-77
2023/02/28 05:15:17;;;;;;;53.03;40.40;;;;;;;3.95;100.00;102197.88;5055776;28;20057;-78
2023/02/28 05:17:44;;;;;;;61.05;45.85;;;;;;;3.60;100.00;102196.31;5055111;28;20099;-78
2023/02/28 05:20:13;;;;;;;45.05;33.63;;;;;;;4.79;100.00;102188.16;5054694;28;20107;-78
2023/02/28 05:22:40;;;;;;;52.58;40.28;;;;;;;3.77;100.00;102202.84;5055903;28;20083;-77
2023/02/28 05:25:07;;;;;;;60.05;44.80;;;;;;;3.40;100.00;102219.78;5055837;28;20049;-77
2023/02/28 05:27:34;;;;;;;58.97;43.17;;;;;;;3.19;100.00;102217.06;5055333;28;20049;-77
2023/02/28 05:30:03;;;;;;;57.17;41.42;;;;;;;4.15;100.00;102223.38;5055459;28;20053;-77
2023/02/28 05:32:31;;;;;;;53.22;39.83;;;;;;;3.67;100.00;102226.41;5055455;28;20057;-78
2023/02/28 05:34:58;;;;;;;56.38;40.00;;;;;;;3.73;100.00;102235.59;5055537;28;20076;-78
2023/02/28 05:37:24;;;;;;;51.05;37.22;;;;;;;3.75;100.00;102236.28;5055614;28;20468;-77
2023/02/28 05:39:51;;;;;;;62.55;44.42;;;;;;;3.37;100.00;102229.69;5055474;28;20053;-77
2023/02/28 05:42:18;;;;;;;53.75;39.78;;;;;;;3.47;100.00;102228.00;5055440;28;20504;-77
2023/02/28 05:44:44;;;;;;;52.53;37.50;;;;;;;3.46;100.00;102239.47;5055499;28;20053;-77
2023/02/28 05:47:12;;;;;;;49.13;36.50;;;;;;;3.26;100.00;102242.84;5055150;28;20045;-78
2023/02/28 05:49:40;;;;;;;55.13;37.72;;;;;;;3.47;100.00;102246.38;5055129;28;20049;-77
2023/02/28 05:52:07;;;;;;;52.20;37.58;;;;;;;3.96;100.00;102257.38;5055423;28;20114;-77
2023/02/28 05:54:33;;;;;;;53.13;38.03;;;;;;;3.39;100.00;102254.91;5055314;28;20045;-77
2023/02/28 05:57:00;;;;;;;49.33;37.67;;;;;;;3.47;100.00;102262.16;5054999;28;20103;-77
2023/02/28 05:59:27;;;;;;;51.42;39.10;;;;;;;3.68;100.00;102267.50;5054812;28;20053;-77
2023/02/28 06:01:54;;;;;;;54.28;40.13;;;;;;;3.35;100.00;102274.47;5054661;28;20111;-77
2023/02/28 06:04:21;;;;;;;50.85;36.15;;;;;;;4.22;100.00;102284.19;5054734;28;20045;-77
2023/02/28 06:06:51;;;;;;;55.75;37.78;;;;;;;3.82;100.00;102282.16;5055199;28;20061;-77
2023/02/28 06:09:18;;;;;;;49.10;37.08;;;;;;;4.76;100.00;102283.19;5054680;28;20106;-77
2023/02/28 06:11:45;;;;;;;55.20;40.22;;;;;;;4.41;100.00;102284.31;5054732;28;20057;-77
2023/02/28 06:14:16;;;;;;;53.97;40.45;;;;;;;4.36;100.00;102282.09;5055097;28;20494;-78
2023/02/28 06:16:43;;;;;;;58.28;40.10;;;;;;;3.73;100.00;102281.09;5054922;28;20056;-77
2023/02/28 06:19:11;;;;;;;60.47;43.85;;;;;;;3.44;100.00;102268.47;5054555;28;20106;-77
2023/02/28 06:21:38;;;;;;;56.72;41.83;;;;;;;3.68;100.00;102268.31;5054826;28;20110;-78
2023/02/28 06:24:07;;;;;;;46.83;35.25;;;;;;;6.42;100.00;102267.66;5053405;28;20082;-78
2023/02/28 06:26:33;;;;;;;53.13;38.58;;;;;;;4.21;100.00;102279.88;5054684;28;20472;-78
2023/02/28 06:29:01;;;;;;;51.63;38.22;;;;;;;3.96;100.00;102279.22;5054425;28;20098;-77
2023/02/28 06:31:28;;;;;;;52.72;37.50;;;;;;;3.67;100.00;102274.53;5055011;28;20052;-78
2023/02/28 06:33:55;;;;;;;55.90;41.70;;;;;;;3.94;100.00;102265.41;5054676;28;20049;-78
2023/02/28 06:36:23;;;;;;;52.60;40.40;;;;;;;4.13;100.00;102262.94;5054218;28;20056;-77
2023/02/28 06:38:54;;;;;;;50.53;40.10;;;;;;;3.75;100.00;102255.53;5054520;28;20049;-77
2023/02/28 06:41:23;;;;;;;58.00;42.75;;;;;;;3.68;100.00;102267.50;5054189;28;20128;-77
2023/02/28 06:43:50;;;;;;;56.53;40.33;;;;;;;4.32;100.00;102272.75;5054086;28;20486;-78
2023/02/28 06:46:17;;;;;;;51.95;38.83;;;;;;;4.07;100.00;102265.22;5054317;28;20053;-78
2023/02/28 06:48:44;;;;;;;58.22;40.95;;;;;;;4.03;100.00;102272.53;5054065;28;20502;-77
2023/02/28 06:51:13;;;;;;;54.15;41.50;;;;;;;4.42;100.00;102275.47;5054153;28;20045;-77
2023/02/28 06:53:41;;;;;;;54.42;40.63;;;;;;;5.04;100.00;102268.50;5054088;28;20052;-78
2023/02/28 06:56:09;;;;;;;49.85;38.88;;;;;;;5.29;100.00;102269.84;5054514;28;20059;-78
2023/02/28 06:58:39;;;;;;;49.97;38.75;;;;;;;4.77;100.00;102259.34;5053686;28;20075;-77
2023/02/28 07:01:06;;;;;;;48.55;40.00;;;;;;;4.36;100.00;102255.78;5053956;28;20045;-77
2023/02/28 07:03:33;;;;;;;58.42;43.25;;;;;;;3.68;100.00;102268.31;5053635;28;20501;-77
2023/02/28 07:06:00;;;;;;;55.65;38.97;;;;;;;4.58;100.00;102269.78;5053769;28;20049;-78
2023/02/28 07:08:27;;;;;;;54.95;39.35;;;;;;;4.11;100.00;102272.75;5053915;28;20045;-78
2023/02/28 07:10:55;;;;;;;56.58;41.25;;;;;;;3.82;100.00;102271.66;5054229;28;20053;-77
2023/02/28 07:13:24;;;;;;;53.90;41.78;;;;;;;3.94;100.00;102270.66;5053948;28;20053;-78
2023/02/28 07:15:56;;;;;;;55.38;43.30;;;;;;;3.79;100.00;102277.16;5053670;28;20049;-78
2023/02/28 07:18:23;;;;;;;58.07;44.63;;;;;;;3.64;100.00;102280.03;5053614;28;20099;-77
2023/02/28 07:20:50;;;;;;;58.97;43.95;;;;;;;3.72;100.00;102268.06;5053755;28;20171;-77
2023/02/28 07:23:16;;;;;;;61.47;46.78;;;;;;;3.63;100.00;102269.63;5053252;28;20107;-77
2023/02/28 07:25:43;;;;;;;59.45;44.53;;;;;;;3.64;100.00;102277.41;5053462;28;20102;-77
2023/02/28 07:28:10;;;;;;;57.35;45.20;;;;;;;3.78;100.00;102280.72;5053471;28;20049;-77
2023/02/28 07:30:37;;;;;;;57.55;42.53;;;;;;;4.13;100.00;102291.84;5053249;28;20053;-77
2023/02/28 07:33:05;;;;;;;59.17;42.70;;;;;;;4.12;100.00;102284.94;5053512;28;20053;-77
2023/02/28 07:35:32;;;;;;;53.67;41.65;;;;;;;3.97;100.00;102274.84;5052784;28;20049;-77
2023/02/28 07:37:59;;;;;;;50.67;41.45;;;;;;;4.09;100.00;102277.28;5053735;28;20049;-77
2023/02/28 07:40:27;;;;;;;55.70;41.95;;;;;;;3.89;100.00;102281.53;5053437;28;20053;-77
2023/02/28 07:42:54;;;;;;;58.20;42.10;;;;;;;4.21;100.00;102283.34;5053259;28;20107;-77
2023/02/28 07:45:20;;;;;;;57.60;38.63;;;;;;;5.53;100.00;102280.03;5053239;28;20053;-77
2023/02/28 07:47:48;;;;;;;59.70;39.92;;;;;;;4.51;100.00;102290.50;5053161;28;20395;-77
2023/02/28 07:50:16;;;;;;;52.88;40.13;;;;;;;4.42;100.00;102298.31;5052837;28;20094;-77
2023/02/28 07:52:43;;;;;;;52.38;39.05;;;;;;;4.04;100.00;102295.22;5053233;28;20422;-77
2023/02/28 07:55:11;;;;;;;58.00;42.97;;;;;;;3.85;100.00;102285.38;5053064;28;20049;-77
2023/02/28 07:57:38;;;;;;;59.30;42.10;;;;;;;3.98;100.00;102294.91;5052685;28;20132;-77
2023/02/28 08:00:06;;;;;;;52.28;37.85;;;;;;;4.25;100.00;102289.19;5052588;28;20040;-78
2023/02/28 08:02:33;;;;;;;46.97;35.55;;;;;;;5.40;100.00;102282.91;5052338;28;20057;-78
2023/02/28 08:05:01;;;;;;;51.72;40.03;;;;;;;4.93;100.00;102284.38;5052575;28;20490;-78
2023/02/28 08:07:29;;;;;;;45.40;36.35;;;;;;;4.18;100.00;102294.13;5052756;28;20049;-77
2023/02/28 08:09:56;;;;;;;52.65;38.53;;;;;;;4.16;100.00;102292.56;5052795;28;20118;-77
2023/02/28 08:12:22;;;;;;;55.40;43.13;;;;;;;4.21;100.00;102288.59;5052768;28;20049;-77
2023/02/28 08:14:50;;;;;;;54.55;40.30;;;;;;;4.43;100.00;102292.09;5051413;28;20425;-77
2023/02/28 08:17:17;;;;;;;52.10;38.47;;;;;;;5.17;100.00;102299.88;5052337;28;20572;-77
2023/02/28 08:19:46;;;;;;;53.38;42.75;;;;;;;4.90;100.00;102301.28;5052354;28;20053;-77
2023/02/28 08:22:13;;;;;;;53.92;39.78;;;;;;;4.29;100.00;102298.47;5052351;28;20057;-77
2023/02/28 08:24:42;;;;;;;52.75;39.47;;;;;;;4.18;100.00;102298.56;5052807;28;20057;-77
2023/02/28 08:27:09;;;;;;;52.45;41.90;;;;;;;4.33;100.00;102295.50;5052273;28;20553;-77
2023/02/28 08:29:38;;;;;;;49.88;38.97;;;;;;;5.31;100.00;102293.44;5052631;28;20115;-78
2023/02/28 08:32:05;;;;;;;47.90;38.60;;;;;;;4.24;100.00;102290.16;5052534;28;20045;-78
2023/02/28 08:34:32;;;;;;;51.33;39.47;;;;;;;4.48;100.00;102300.41;5052410;28;20053;-77
2023/02/28 08:36:59;;;;;;;59.67;43.63;;;;;;;4.32;100.00;102301.69;5052318;28;20076;-77
2023/02/28 08:39:25;;;;;;;51.33;39.45;;;;;;;4.74;100.00;102296.47;5052301;28;20110;-78
2023/02/28 08:41:53;;;;;;;60.63;45.65;;;;;;;4.80;100.00;102297.75;5051974;28;20040;-78
2023/02/28 08:44:20;;;;;;;53.08;40.55;;;;;;;5.15;100.00;102293.94;5052118;28;20049;-78
2023/02/28 08:46:47;;;;;;;59.42;42.20;;;;;;;4.60;100.00;102296.81;5051216;28;20053;-78
2023/02/28 08:49:14;;;;;;;52.58;39.80;;;;;;;4.96;100.00;102290.22;5052147;28;20099;-77
2023/02/28 08:51:40;;;;;;;52.08;42.13;;;;;;;4.48;100.00;102285.50;5052181;28;20122;-77
2023/02/28 08:54:07;;;;;;;51.83;42.78;;;;;;;4.65;100.00;102291.97;5052160;28;20484;-77
2023/02/28 08:56:34;;;;;;;51.83;41.88;;;;;;;4.30;100.00;102289.66;5051977;28;20061;-77
2023/02/28 08:59:02;;;;;;;52.10;40.60;;;;;;;4.35;100.00;102284.81;5052078;28;20095;-77
2023/02/28 09:01:29;;;;;;;50.90;41.03;;;;;;;4.58;100.00;102282.94;5051811;28;20061;-77
2023/02/28 09:03:57;;;;;;;44.03;36.17;;;;;;;5.24;100.00;102280.78;5052141;28;20053;-78
2023/02/28 09:06:26;;;;;;;52.65;40.65;;;;;;;4.76;100.00;102286.66;5052174;28;20048;-77
2023/02/28 09:08:53;;;;;;;49.63;42.80;;;;;;;4.53;100.00;102285.94;5052117;28;20049;-77
2023/02/28 09:11:20;;;;;;;51.40;41.05;;;;;;;5.14;100.00;102276.44;5052113;28;20045;-77
2023/02/28 09:13:47;;;;;;;47.80;40.20;;;;;;;4.71;100.00;102283.56;5052112;28;20508;-78
2023/02/28 09:16:16;;;;;;;48.25;41.33;;;;;;;5.21;100.00;102291.59;5051851;28;20049;-78
2023/02/28 09:18:44;;;;;;;55.05;43.00;;;;;;;5.05;100.00;102296.47;5052167;28;20056;-78
2023/02/28 09:21:13;;;;;;;48.60;40.53;;;;;;;5.02;100.00;102294.13;5051677;28;20585;-77
2023/02/28 09:23:41;;;;;;;52.17;40.53;;;;;;;4.57;100.00;102295.25;5051890;28;20049;-77
2023/02/28 09:26:08;;;;;;;52.83;41.35;;;;;;;4.56;100.00;102290.94;5052023;28;20057;-77
2023/02/28 09:28:35;;;;;;;50.67;40.10;;;;;;;4.55;100.00;102284.00;5051963;28;20049;-77
2023/02/28 09:31:04;;;;;;;53.75;41.35;;;;;;;4.75;100.00;102289.38;5051581;28;20111;-77
2023/02/28 09:33:34;;;;;;;51.47;43.25;;;;;;;4.88;100.00;102289.22;5051860;28;20482;-77
2023/02/28 09:36:03;;;;;;;45.80;36.00;;;;;;;5.62;100.00;102279.22;5051608;28;20049;-78
2023/02/28 09:38:30;;;;;;;53.03;41.47;;;;;;;5.27;100.00;102285.78;5051836;28;20048;-78
2023/02/28 09:40:59;;;;;;;51.38;42.20;;;;;;;5.47;100.00;102277.94;5051451;28;20049;-78
2023/02/28 09:43:29;;;;;;;41.97;36.35;;;;;;;6.01;100.00;102279.31;5051882;28;20099;-78
2023/02/28 09:46:00;;;;;;;49.60;43.58;;;;;;;5.40;100.00;102271.53;5051498;28;20045;-78
2023/02/28 09:48:34;;;;;;;51.38;41.70;;;;;;;5.31;100.00;102270.53;5051796;28;20155;-78
2023/02/28 09:51:04;;;;;;;45.55;37.90;;;;;;;5.71;100.00;102282.84;5051824;28;20052;-78
2023/02/28 09:53:34;;;;;;;48.30;39.53;;;;;;;5.59;100.00;102270.75;5051771;28;20122;-78
2023/02/28 09:56:05;;;;;;;47.90;38.45;;;;;;;6.11;100.00;102263.50;5051592;28;20141;-77
2023/02/28 09:58:37;;;;;;;46.50;39.83;;;;;;;5.15;100.00;102267.59;5054529;28;20045;-78
2023/02/28 10:01:11;;;;;;;44.40;38.53;;;;;;;5.83;100.00;102265.94;5054695;28;20481;-77
2023/02/28 10:03:47;;;;;;;49.78;40.00;;;;;;;5.02;100.00;102273.91;5055100;28;20045;-78
2023/02/28 10:06:18;;;;;;;52.85;41.40;;;;;;;5.49;100.00;102268.09;5055089;28;20053;-77
2023/02/28 10:08:53;;;;;;;43.10;36.28;;;;;;;7.23;100.00;102277.75;5054999;28;20045;-78
2023/02/28 10:11:22;;;;;;;48.78;39.53;;;;;;;5.32;100.00;102280.09;5055097;28;20106;-78
2023/02/28 10:13:57;;;;;;;53.20;42.05;;;;;;;5.26;100.00;102283.28;5054932;28;20045;-77
2023/02/28 10:16:32;;;;;;;53.22;42.95;;;;;;;5.01;100.00;102287.19;5055033;28;20103;-77
2023/02/28 10:19:05;;;;;;;48.92;38.95;;;;;;;5.52;100.00;102275.75;5054589;28;20055;-77
2023/02/28 10:21:37;;;;;;;49.95;40.33;;;;;;;5.09;100.00;102283.91;5054560;28;20049;-78
2023/02/28 10:24:06;;;;;;;;;;;;;;;5.22;100.00;102277.44;5055188;28;20099;-77
2023/02/28 10:26:34;;;;;;;57.78;41.53;;;;;;;4.90;100.00;102280.22;5054712;28;19921;-77
2023/02/28 10:29:02;;;;;;;63.42;42.15;;;;;;;5.37;100.00;102277.91;5054663;28;20049;-77
2023/02/28 10:31:29;;;;;;;56.03;41.78;;;;;;;5.17;100.00;102274.34;5054671;28;20103;-78
2023/02/28 10:33:56;;;;;;;59.15;43.20;;;;;;;5.06;100.00;102277.09;5054580;28;20130;-78
2023/02/28 10:36:24;;;;;;;53.15;41.03;;;;;;;4.82;100.00;102274.75;5054400;28;20510;-77
2023/02/28 10:38:51;;;;;;;51.38;41.17;;;;;;;4.99;100.00;102274.16;5054154;28;20049;-77
2023/02/28 10:41:28;;;;;;;51.78;36.47;;;;;;;5.21;100.00;102273.16;5054418;28;20049;-77
2023/02/28 10:44:14;;;;;;;56.97;43.13;;;;;;;4.81;100.00;102267.81;5054447;28;20111;-77
2023/02/28 10:46:42;;;;;;;58.65;38.50;;;;;;;5.39;100.00;102261.97;5054360;28;20049;-77
2023/02/28 10:49:16;;;;;;;57.38;40.72;;;;;;;5.33;100.00;102265.16;5054091;28;20107;-77
2023/02/28 10:51:44;;;;;;;48.92;39.17;;;;;;;5.77;100.00;102263.03;5054007;28;20055;-78
2023/02/28 10:54:19;;;;;;;55.33;42.00;;;;;;;4.99;100.00;102250.47;5054441;28;20099;-77
2023/02/28 10:56:46;;;;;;;57.45;40.67;;;;;;;4.71;100.00;102251.13;5054347;28;20399;-77
2023/02/28 10:59:29;;;;;;;55.80;40.03;;;;;;;5.54;100.00;102241.31;5053789;28;20041;-78
2023/02/28 11:01:56;;;;;;;62.17;45.63;;;;;;;4.94;100.00;102236.84;5053784;28;20102;-78
2023/02/28 11:04:37;;;;;;;63.58;44.58;;;;;;;5.20;100.00;102234.59;5054289;28;20053;-78
2023/02/28 11:07:07;;;;;;;59.97;47.00;;;;;;;4.87;100.00;102250.66;5053841;28;20056;-77
2023/02/28 11:09:36;;;;;;;58.65;43.85;;;;;;;4.91;100.00;102239.75;5052988;28;20049;-78
2023/02/28 11:12:05;;;;;;;59.90;43.22;;;;;;;5.21;100.00;102240.72;5053899;28;20422;-77
2023/02/28 11:14:37;;;;;;;61.00;42.05;;;;;;;4.98;100.00;102240.88;5053507;28;20135;-77
2023/02/28 11:17:16;;;;;;;62.03;44.10;;;;;;;5.23;100.00;102249.28;5054096;28;20430;-78
2023/02/28 11:19:47;;;;;;;62.00;43.55;;;;;;;5.31;100.00;102233.66;5053693;28;20045;-78